Time;durP1;ratioP1;P1;durP2;ratioP2;P2;SDS_P1;SDS_P2;PMS_P1;PMS_P2;Temp;Humidity;BMP_temperature;BMP_pressure;BME280_temperature;BME280_humidity;BME280_pressure;Samples;Min_cycle;Max_cycle;Signal;HPM_P1;HPM_P2
2022/10/11 00:00:52;;;;;;;6.05;2.13;;;;;;;;;;4969251;28;20058;-62
2022/10/11 00:03:19;;;;;;;5.85;2.05;;;;;;;;;;4969096;28;20050;-62
2022/10/11 00:05:45;;;;;;;6.65;2.40;;;;;;;;;;4963415;28;20085;-62
2022/10/11 00:08:12;;;;;;;5.63;2.20;;;;;;;;;;4968607;28;20050;-63
2022/10/11 00:10:39;;;;;;;6.25;2.13;;;;;;;;;;4964248;28;20112;-62
2022/10/11 00:13:06;;;;;;;5.07;1.88;;;;;;;;;;4968833;28;20097;-62
2022/10/11 00:15:32;;;;;;;3.67;1.70;;;;;;;;;;4964078;28;20108;-63
2022/10/11 00:18:01;;;;;;;6.93;2.22;;;;;;;;;;4968682;28;20058;-63
2022/10/11 00:20:27;;;;;;;5.22;1.92;;;;;;;;;;4963549;28;20062;-62
2022/10/11 00:22:54;;;;;;;5.68;1.98;;;;;;;;;;4967958;28;20054;-62
2022/10/11 00:25:21;;;;;;;5.22;2.08;;;;;;;;;;4963765;28;20061;-62
2022/10/11 00:27:47;;;;;;;4.20;1.55;;;;;;;;;;4968913;28;20057;-63
2022/10/11 00:30:14;;;;;;;5.43;1.95;;;;;;;;;;4964276;28;20050;-63
2022/10/11 00:32:41;;;;;;;5.65;1.77;;;;;;;;;;4975249;28;20058;-63
2022/10/11 00:35:09;;;;;;;8.00;1.92;;;;;;;;;;4969847;28;20050;-63
2022/10/11 00:37:37;;;;;;;4.82;1.88;;;;;;;;;;4974783;28;20195;-62
2022/10/11 00:40:04;;;;;;;3.67;1.67;;;;;;;;;;4970316;28;20050;-63
2022/10/11 00:42:30;;;;;;;7.57;1.88;;;;;;;;;;4975031;28;20057;-62
2022/10/11 00:45:12;;;;;;;6.40;2.15;;;;;;;;;;4975564;28;20062;-63
2022/10/11 00:47:40;;;;;;;8.23;1.80;;;;;;;;;;4955413;28;20062;-63
2022/10/11 00:50:10;;;;;;;5.15;1.95;;;;;;;;;;4955905;28;20069;-63
2022/10/11 00:52:38;;;;;;;5.97;1.77;;;;;;;;;;4971538;28;20069;-62
2022/10/11 00:55:06;;;;;;;4.28;1.55;;;;;;;;;;4995053;28;20057;-62
2022/10/11 00:57:35;;;;;;;4.20;1.73;;;;;;;;;;5005635;28;20057;-62
2022/10/11 01:00:02;;;;;;;4.75;1.80;;;;;;;;;;4994757;28;20054;-63
2022/10/11 01:02:29;;;;;;;4.43;1.80;;;;;;;;;;4988970;28;20104;-63
2022/10/11 01:04:55;;;;;;;3.65;1.42;;;;;;;;;;4994609;28;20085;-62
2022/10/11 01:07:26;;;;;;;4.38;1.60;;;;;;;;;;5004443;28;20042;-62
2022/10/11 01:09:53;;;;;;;4.13;1.75;;;;;;;;;;4994813;28;20073;-62
2022/10/11 01:12:21;;;;;;;6.43;1.90;;;;;;;;;;5005023;28;20053;-63
2022/10/11 01:15:06;;;;;;;4.68;1.60;;;;;;;;;;5010930;28;20084;-62
2022/10/11 01:17:36;;;;;;;4.72;1.60;;;;;;;;;;5005070;28;20105;-63
2022/10/11 01:20:10;;;;;;;6.07;1.73;;;;;;;;;;4994616;28;20056;-62
2022/10/11 01:22:54;;;;;;;4.28;1.50;;;;;;;;;;4988743;28;20096;-63
2022/10/11 01:25:25;;;;;;;7.93;1.90;;;;;;;;;;4994189;28;20053;-62
2022/10/11 01:27:59;;;;;;;5.22;1.65;;;;;;;;;;4988424;28;20104;-62
2022/10/11 01:30:28;;;;;;;4.35;1.50;;;;;;;;;;4994968;28;20069;-63
2022/10/11 01:32:55;;;;;;;;;;;;;;;;;;4988960;28;20058;-62
2022/10/11 01:35:24;;;;;;;4.68;1.33;;;;;;;;;;4994201;28;19925;-63
2022/10/11 01:37:54;;;;;;;4.97;1.80;;;;;;;;;;4986837;28;20049;-62
2022/10/11 01:40:23;;;;;;;5.75;1.90;;;;;;;;;;4994349;28;20057;-62
2022/10/11 01:42:49;;;;;;;6.95;1.92;;;;;;;;;;4986516;28;20056;-62
2022/10/11 01:45:17;;;;;;;7.45;2.00;;;;;;;;;;4991089;28;20056;-62
2022/10/11 01:47:45;;;;;;;4.25;1.50;;;;;;;;;;4985511;28;20050;-62
2022/10/11 01:50:27;;;;;;;3.17;1.50;;;;;;;;;;4990649;28;20102;-62
2022/10/11 01:52:55;;;;;;;5.15;1.38;;;;;;;;;;4972649;28;20049;-62
2022/10/11 01:55:25;;;;;;;5.65;1.73;;;;;;;;;;4990119;28;20133;-62
2022/10/11 01:57:58;;;;;;;5.45;1.73;;;;;;;;;;4990589;28;20143;-63
2022/10/11 02:00:26;;;;;;;4.32;1.70;;;;;;;;;;4997502;28;20046;-62
2022/10/11 02:03:02;;;;;;;4.68;1.65;;;;;;;;;;4988139;28;20147;-62
2022/10/11 02:05:33;;;;;;;5.05;1.58;;;;;;;;;;4965424;28;20046;-62
2022/10/11 02:08:04;;;;;;;4.53;1.55;;;;;;;;;;4970849;28;20054;-62
2022/10/11 02:10:35;;;;;;;3.75;1.35;;;;;;;;;;4984212;28;20088;-62
2022/10/11 02:13:03;;;;;;;3.72;1.58;;;;;;;;;;4990181;28;20064;-63
2022/10/11 02:15:31;;;;;;;6.75;1.58;;;;;;;;;;4984730;28;20072;-63
2022/10/11 02:18:02;;;;;;;2.67;1.27;;;;;;;;;;4989853;28;20050;-63
2022/10/11 02:20:31;;;;;;;7.75;1.80;;;;;;;;;;4984261;28;20124;-62
2022/10/11 02:22:59;;;;;;;6.18;1.70;;;;;;;;;;4990714;28;20073;-63
2022/10/11 02:25:26;;;;;;;;;;;;;;;;;;4982346;28;20445;-62
2022/10/11 02:27:54;;;;;;;3.60;1.42;;;;;;;;;;4970630;28;19932;-62
2022/10/11 02:30:21;;;;;;;4.55;1.48;;;;;;;;;;4990636;28;20041;-62
2022/10/11 02:32:49;;;;;;;4.10;1.48;;;;;;;;;;4990817;28;20061;-62
2022/10/11 02:35:17;;;;;;;4.85;1.40;;;;;;;;;;4984973;28;20088;-63
2022/10/11 02:37:48;;;;;;;3.53;1.40;;;;;;;;;;4989770;28;20104;-62
2022/10/11 02:40:16;;;;;;;3.72;1.30;;;;;;;;;;4971064;28;20118;-62
2022/10/11 02:42:45;;;;;;;6.40;1.48;;;;;;;;;;4990404;28;20050;-62
2022/10/11 02:45:14;;;;;;;3.47;1.40;;;;;;;;;;4984999;28;20053;-62
2022/10/11 02:47:41;;;;;;;4.10;1.27;;;;;;;;;;4989668;28;20615;-62
2022/10/11 02:50:08;;;;;;;6.82;1.70;;;;;;;;;;4984073;28;20053;-62
2022/10/11 02:52:36;;;;;;;5.55;1.73;;;;;;;;;;4989890;28;20049;-62
2022/10/11 02:55:04;;;;;;;3.70;1.50;;;;;;;;;;4989545;28;20499;-62
2022/10/11 02:57:30;;;;;;;4.68;1.55;;;;;;;;;;4983723;28;20054;-62
2022/10/11 02:59:57;;;;;;;3.38;1.30;;;;;;;;;;4989098;28;20100;-63
2022/10/11 03:02:23;;;;;;;5.60;1.45;;;;;;;;;;4984165;28;20125;-63
2022/10/11 03:04:50;;;;;;;6.55;1.48;;;;;;;;;;4988430;28;20108;-62
2022/10/11 03:07:16;;;;;;;2.58;1.15;;;;;;;;;;4983944;28;20061;-63
2022/10/11 03:09:44;;;;;;;2.65;1.35;;;;;;;;;;4988962;28;20073;-63
2022/10/11 03:12:11;;;;;;;4.20;1.30;;;;;;;;;;4984308;28;20153;-63
2022/10/11 03:14:37;;;;;;;5.70;1.45;;;;;;;;;;4989298;28;20100;-63
2022/10/11 03:17:04;;;;;;;2.60;1.15;;;;;;;;;;4983523;28;20053;-63
2022/10/11 03:19:31;;;;;;;5.55;1.58;;;;;;;;;;5005282;28;20054;-63
2022/10/11 03:21:57;;;;;;;3.90;1.25;;;;;;;;;;4984485;28;20049;-63
2022/10/11 03:24:24;;;;;;;4.43;1.52;;;;;;;;;;4989128;28;20054;-63
2022/10/11 03:26:52;;;;;;;2.55;1.13;;;;;;;;;;4983710;28;20049;-63
2022/10/11 03:29:18;;;;;;;3.75;1.40;;;;;;;;;;4989387;28;20053;-62
2022/10/11 03:31:45;;;;;;;2.50;1.20;;;;;;;;;;4983536;28;20365;-63
2022/10/11 03:34:11;;;;;;;3.90;1.20;;;;;;;;;;4989606;28;20115;-63
2022/10/11 03:36:38;;;;;;;3.88;1.30;;;;;;;;;;4989167;28;20088;-63
2022/10/11 03:39:04;;;;;;;2.72;1.00;;;;;;;;;;4983241;28;20062;-62
2022/10/11 03:41:31;;;;;;;3.38;1.10;;;;;;;;;;4989399;28;20062;-62
2022/10/11 03:43:59;;;;;;;2.63;1.10;;;;;;;;;;5001710;28;20124;-63
2022/10/11 03:46:25;;;;;;;7.03;1.57;;;;;;;;;;4988713;28;20113;-63
2022/10/11 03:48:53;;;;;;;3.58;1.25;;;;;;;;;;4983609;28;20301;-62
2022/10/11 03:51:19;;;;;;;4.40;1.50;;;;;;;;;;4989096;28;20061;-63
2022/10/11 03:53:46;;;;;;;2.38;1.02;;;;;;;;;;4983511;28;20167;-62
2022/10/11 03:56:13;;;;;;;3.80;1.33;;;;;;;;;;4988091;28;20109;-63
2022/10/11 03:58:41;;;;;;;2.60;1.10;;;;;;;;;;4983247;28;20064;-62
2022/10/11 04:01:09;;;;;;;3.65;1.20;;;;;;;;;;4988638;28;20058;-62
2022/10/11 04:03:36;;;;;;;3.33;1.20;;;;;;;;;;4982857;28;20050;-63
2022/10/11 04:06:02;;;;;;;3.42;1.10;;;;;;;;;;4987835;28;20060;-63
2022/10/11 04:08:29;;;;;;;3.55;1.15;;;;;;;;;;4967979;28;20083;-62
2022/10/11 04:10:55;;;;;;;3.55;1.35;;;;;;;;;;4989205;28;20112;-61
2022/10/11 04:13:22;;;;;;;3.22;1.13;;;;;;;;;;4983094;28;20064;-63
2022/10/11 04:15:48;;;;;;;2.47;1.10;;;;;;;;;;4988742;28;20050;-62
2022/10/11 04:18:16;;;;;;;2.95;1.15;;;;;;;;;;4987902;28;20054;-62
2022/10/11 04:20:43;;;;;;;4.50;1.10;;;;;;;;;;4982913;28;20054;-62
2022/10/11 04:23:09;;;;;;;4.22;1.20;;;;;;;;;;5005196;28;20062;-62
2022/10/11 04:25:38;;;;;;;2.65;1.13;;;;;;;;;;4982042;28;20056;-62
2022/10/11 04:28:06;;;;;;;4.90;1.50;;;;;;;;;;4977002;28;20064;-61
2022/10/11 04:30:33;;;;;;;4.07;1.42;;;;;;;;;;4982800;28;20050;-62
2022/10/11 04:32:59;;;;;;;2.10;1.10;;;;;;;;;;4988607;28;20058;-62
2022/10/11 04:35:27;;;;;;;3.80;1.38;;;;;;;;;;4983272;28;20067;-62
2022/10/11 04:37:54;;;;;;;3.10;1.10;;;;;;;;;;4987343;28;20054;-62
2022/10/11 04:40:20;;;;;;;2.83;1.15;;;;;;;;;;4999489;28;20112;-62
2022/10/11 04:42:49;;;;;;;4.75;1.48;;;;;;;;;;4988405;28;20054;-62
2022/10/11 04:45:15;;;;;;;1.73;1.08;;;;;;;;;;4982611;28;20050;-62
2022/10/11 04:47:42;;;;;;;2.28;1.05;;;;;;;;;;4987355;28;20359;-62
2022/10/11 04:50:09;;;;;;;3.00;1.33;;;;;;;;;;4982026;28;20096;-62
2022/10/11 04:52:36;;;;;;;3.95;1.45;;;;;;;;;;4987178;28;20129;-63
2022/10/11 04:55:03;;;;;;;3.40;1.30;;;;;;;;;;4982612;28;20100;-62
2022/10/11 04:57:30;;;;;;;3.40;1.20;;;;;;;;;;5003742;28;20078;-62
2022/10/11 04:59:58;;;;;;;4.22;1.40;;;;;;;;;;5004413;28;20081;-63
2022/10/11 05:02:25;;;;;;;5.63;1.67;;;;;;;;;;5001642;28;20049;-62
2022/10/11 05:04:51;;;;;;;1.80;1.05;;;;;;;;;;4988181;28;20054;-63
2022/10/11 05:07:18;;;;;;;2.65;1.30;;;;;;;;;;4982242;28;20058;-62
2022/10/11 05:09:46;;;;;;;4.70;1.33;;;;;;;;;;4988018;28;20050;-62
2022/10/11 05:12:13;;;;;;;4.47;1.55;;;;;;;;;;4983242;28;20056;-62
2022/10/11 05:14:39;;;;;;;2.60;1.17;;;;;;;;;;4987562;28;20061;-62
2022/10/11 05:17:05;;;;;;;3.88;1.30;;;;;;;;;;4982381;28;20046;-63
2022/10/11 05:19:33;;;;;;;4.18;1.33;;;;;;;;;;4990983;28;20148;-63
2022/10/11 05:22:00;;;;;;;4.60;1.42;;;;;;;;;;4980472;28;20076;-62
2022/10/11 05:24:26;;;;;;;2.58;1.00;;;;;;;;;;5007737;28;20058;-62
2022/10/11 05:26:54;;;;;;;6.13;1.20;;;;;;;;;;4985957;28;20124;-63
2022/10/11 05:29:21;;;;;;;1.80;1.05;;;;;;;;;;4990818;28;20054;-63
2022/10/11 05:31:47;;;;;;;3.00;1.40;;;;;;;;;;5002365;28;20049;-63
2022/10/11 05:34:14;;;;;;;5.35;1.50;;;;;;;;;;4991592;28;20058;-63
2022/10/11 05:36:40;;;;;;;4.50;1.35;;;;;;;;;;4985785;28;20116;-63
2022/10/11 05:39:07;;;;;;;3.08;1.50;;;;;;;;;;4990712;28;20137;-63
2022/10/11 05:41:33;;;;;;;2.45;1.30;;;;;;;;;;4991844;28;20061;-63
2022/10/11 05:44:01;;;;;;;3.75;1.35;;;;;;;;;;4987527;28;20056;-63
2022/10/11 05:46:28;;;;;;;5.38;1.70;;;;;;;;;;4990906;28;20054;-63
2022/10/11 05:48:55;;;;;;;4.55;1.30;;;;;;;;;;4984686;28;20147;-64
2022/10/11 05:51:21;;;;;;;3.40;1.42;;;;;;;;;;4991152;28;20064;-63
2022/10/11 05:53:48;;;;;;;2.70;1.02;;;;;;;;;;4974275;28;20054;-63
2022/10/11 05:56:19;;;;;;;3.92;1.20;;;;;;;;;;4970799;28;20101;-62
2022/10/11 05:58:45;;;;;;;3.90;1.35;;;;;;;;;;4965727;28;20054;-64
2022/10/11 06:01:17;;;;;;;3.95;1.55;;;;;;;;;;4971475;28;20058;-62
2022/10/11 06:03:44;;;;;;;5.32;1.50;;;;;;;;;;4964478;28;20064;-62
2022/10/11 06:06:10;;;;;;;2.47;1.30;;;;;;;;;;4970795;28;20056;-63
2022/10/11 06:08:38;;;;;;;4.05;1.50;;;;;;;;;;4965503;28;20116;-63
2022/10/11 06:11:09;;;;;;;4.07;1.45;;;;;;;;;;4970688;28;20050;-62
2022/10/11 06:13:35;;;;;;;4.43;1.40;;;;;;;;;;4966003;28;20050;-62
2022/10/11 06:16:03;;;;;;;2.88;1.25;;;;;;;;;;4971219;28;20108;-62
2022/10/11 06:18:31;;;;;;;5.10;1.30;;;;;;;;;;4965319;28;20067;-62
2022/10/11 06:20:58;;;;;;;4.85;1.67;;;;;;;;;;4971235;28;20225;-63
2022/10/11 06:23:24;;;;;;;3.88;1.50;;;;;;;;;;4965199;28;20050;-63
2022/10/11 06:25:55;;;;;;;3.65;1.30;;;;;;;;;;4970701;28;20065;-63
2022/10/11 06:28:22;;;;;;;3.75;1.40;;;;;;;;;;4969750;28;20066;-63
2022/10/11 06:30:48;;;;;;;5.97;1.60;;;;;;;;;;4965325;28;20058;-62
2022/10/11 06:33:15;;;;;;;2.55;1.25;;;;;;;;;;4971012;28;20058;-63
2022/10/11 06:35:43;;;;;;;3.78;1.45;;;;;;;;;;4965278;28;20059;-62
2022/10/11 06:38:10;;;;;;;4.03;1.57;;;;;;;;;;4969994;28;20054;-62
2022/10/11 06:40:36;;;;;;;4.82;1.70;;;;;;;;;;4965018;28;20367;-62
2022/10/11 06:43:03;;;;;;;2.75;1.50;;;;;;;;;;4970945;28;20062;-63
2022/10/11 06:45:29;;;;;;;4.18;1.48;;;;;;;;;;4965853;28;20060;-63
2022/10/11 06:47:56;;;;;;;5.40;1.98;;;;;;;;;;4969703;28;20061;-63
2022/10/11 06:50:22;;;;;;;4.45;1.67;;;;;;;;;;4964802;28;20058;-63
2022/10/11 06:52:50;;;;;;;4.35;1.65;;;;;;;;;;4969943;28;20054;-63
2022/10/11 06:55:17;;;;;;;3.40;1.60;;;;;;;;;;4964156;28;20058;-62
2022/10/11 06:57:43;;;;;;;3.13;1.45;;;;;;;;;;4970040;28;20070;-63
2022/10/11 07:00:12;;;;;;;3.80;1.50;;;;;;;;;;4965046;28;20050;-64
2022/10/11 07:02:38;;;;;;;5.10;1.55;;;;;;;;;;4971422;28;20054;-63
2022/10/11 07:05:05;;;;;;;3.25;1.58;;;;;;;;;;4966592;28;20054;-63
2022/10/11 07:07:32;;;;;;;3.40;1.48;;;;;;;;;;4970115;28;20141;-63
2022/10/11 07:10:00;;;;;;;4.00;1.63;;;;;;;;;;4969739;28;20058;-62
2022/10/11 07:12:27;;;;;;;4.15;1.50;;;;;;;;;;4981866;28;20070;-62
2022/10/11 07:14:54;;;;;;;3.50;1.40;;;;;;;;;;4969905;28;20058;-63
2022/10/11 07:17:20;;;;;;;3.00;1.40;;;;;;;;;;4963597;28;20081;-63
2022/10/11 07:19:47;;;;;;;4.15;1.60;;;;;;;;;;4969768;28;20058;-62
2022/10/11 07:22:13;;;;;;;3.65;1.20;;;;;;;;;;4964823;28;20062;-63
2022/10/11 07:24:40;;;;;;;2.45;1.50;;;;;;;;;;4969283;28;20054;-62
2022/10/11 07:27:08;;;;;;;3.75;1.65;;;;;;;;;;4964204;28;20057;-63
2022/10/11 07:29:34;;;;;;;6.75;1.98;;;;;;;;;;4969587;28;20168;-62
2022/10/11 07:32:01;;;;;;;4.60;1.65;;;;;;;;;;4964562;28;20077;-63
2022/10/11 07:34:27;;;;;;;4.13;1.30;;;;;;;;;;4969320;28;20061;-62
2022/10/11 07:36:54;;;;;;;6.03;1.98;;;;;;;;;;4964456;28;20089;-62
2022/10/11 07:39:21;;;;;;;8.02;1.48;;;;;;;;;;4969169;28;20054;-62
2022/10/11 07:41:47;;;;;;;4.45;1.77;;;;;;;;;;4963666;28;20050;-62
2022/10/11 07:44:15;;;;;;;3.72;1.63;;;;;;;;;;4969385;28;20058;-62
2022/10/11 07:46:42;;;;;;;5.68;2.03;;;;;;;;;;4964028;28;20125;-63
2022/10/11 07:49:08;;;;;;;5.05;1.98;;;;;;;;;;4968731;28;20565;-62
2022/10/11 07:51:35;;;;;;;10.25;3.28;;;;;;;;;;4969200;28;20046;-62
2022/10/11 07:54:03;;;;;;;18.15;7.05;;;;;;;;;;4962613;28;20072;-62
2022/10/11 07:56:30;;;;;;;12.30;3.85;;;;;;;;;;4968853;28;20128;-62
2022/10/11 07:58:57;;;;;;;10.05;2.88;;;;;;;;;;4981226;28;20051;-62
2022/10/11 08:01:25;;;;;;;8.60;2.40;;;;;;;;;;4969294;28;20062;-62
2022/10/11 08:03:52;;;;;;;15.75;2.17;;;;;;;;;;4964169;28;20054;-63
2022/10/11 08:06:20;;;;;;;4.22;1.50;;;;;;;;;;4969376;28;20047;-62
2022/10/11 08:08:47;;;;;;;5.97;2.50;;;;;;;;;;4963276;28;20054;-62
2022/10/11 08:11:19;;;;;;;6.10;2.58;;;;;;;;;;4969352;28;20062;-63
2022/10/11 08:13:46;;;;;;;14.23;4.30;;;;;;;;;;4964012;28;20049;-62
2022/10/11 08:16:13;;;;;;;8.70;3.60;;;;;;;;;;4969095;28;20062;-62
2022/10/11 08:18:41;;;;;;;5.97;2.00;;;;;;;;;;4962902;28;20137;-63
2022/10/11 08:21:08;;;;;;;7.30;2.92;;;;;;;;;;4969050;28;20058;-62
2022/10/11 08:23:35;;;;;;;6.93;2.63;;;;;;;;;;4963551;28;20050;-63
2022/10/11 08:26:01;;;;;;;10.75;3.50;;;;;;;;;;4969035;28;20132;-62
2022/10/11 08:28:28;;;;;;;8.63;3.47;;;;;;;;;;4963160;28;20056;-63
2022/10/11 08:30:55;;;;;;;8.95;3.13;;;;;;;;;;4969275;28;20070;-63
2022/10/11 08:33:23;;;;;;;9.93;3.83;;;;;;;;;;4948696;28;20050;-62
2022/10/11 08:35:51;;;;;;;6.60;3.25;;;;;;;;;;4967987;28;20054;-62
2022/10/11 08:38:17;;;;;;;12.90;3.50;;;;;;;;;;4966979;28;20061;-63
2022/10/11 08:40:46;;;;;;;7.07;2.50;;;;;;;;;;4962797;28;20046;-62
2022/10/11 08:43:15;;;;;;;9.55;2.30;;;;;;;;;;4967200;28;20058;-62
2022/10/11 08:45:43;;;;;;;8.38;2.72;;;;;;;;;;4962678;28;20073;-62
2022/10/11 08:48:13;;;;;;;8.45;2.22;;;;;;;;;;4964795;28;20038;-63
2022/10/11 08:50:39;;;;;;;6.25;2.33;;;;;;;;;;4962713;28;20050;-63
2022/10/11 08:53:13;;;;;;;7.97;2.17;;;;;;;;;;4971172;28;20053;-62
2022/10/11 08:55:42;;;;;;;7.60;2.50;;;;;;;;;;4965716;28;20054;-63
2022/10/11 08:58:11;;;;;;;7.57;2.53;;;;;;;;;;4989923;28;20069;-63
2022/10/11 09:00:38;;;;;;;;;;;;;;;;;;4967184;28;20058;-62
2022/10/11 09:03:11;;;;;;;10.63;3.83;;;;;;;;;;4972904;28;19972;-64
2022/10/11 09:05:45;;;;;;;7.70;2.95;;;;;;;;;;4967048;28;20058;-63
2022/10/11 09:08:18;;;;;;;9.90;2.90;;;;;;;;;;4971813;28;20061;-62
2022/10/11 09:10:55;;;;;;;13.00;2.70;;;;;;;;;;4966934;28;20058;-63
2022/10/11 09:13:33;;;;;;;9.65;2.58;;;;;;;;;;4972773;28;20058;-63
2022/10/11 09:16:06;;;;;;;6.05;1.65;;;;;;;;;;4966477;28;20069;-63
2022/10/11 09:18:44;;;;;;;7.80;1.88;;;;;;;;;;4971460;28;20109;-62
2022/10/11 09:21:15;;;;;;;10.23;2.30;;;;;;;;;;4966659;28;20046;-63
2022/10/11 09:23:48;;;;;;;8.50;2.00;;;;;;;;;;4972985;28;20050;-63
2022/10/11 09:26:19;;;;;;;12.68;2.25;;;;;;;;;;4966842;28;20047;-63
2022/10/11 09:28:50;;;;;;;11.32;2.28;;;;;;;;;;4971559;28;20058;-63
2022/10/11 09:31:16;;;;;;;4.30;1.65;;;;;;;;;;4966662;28;20113;-63
2022/10/11 09:33:45;;;;;;;9.48;2.30;;;;;;;;;;4971974;28;20089;-63
2022/10/11 09:36:15;;;;;;;13.18;2.38;;;;;;;;;;4965812;28;20070;-63
2022/10/11 09:38:45;;;;;;;7.45;2.20;;;;;;;;;;4971694;28;20054;-62
2022/10/11 09:41:18;;;;;;;10.38;2.28;;;;;;;;;;4964819;28;20054;-63
2022/10/11 09:43:47;;;;;;;7.50;2.00;;;;;;;;;;4971446;28;20374;-63
2022/10/11 09:46:19;;;;;;;9.02;1.75;;;;;;;;;;4965611;28;20054;-63
2022/10/11 09:48:46;;;;;;;3.80;1.45;;;;;;;;;;4971162;28;20118;-63
2022/10/11 09:51:14;;;;;;;10.65;1.90;;;;;;;;;;4971797;28;20058;-63
2022/10/11 09:53:55;;;;;;;11.35;1.95;;;;;;;;;;4965781;28;20130;-63
2022/10/11 09:56:23;;;;;;;8.68;2.17;;;;;;;;;;4970945;28;20077;-63
2022/10/11 09:59:06;;;;;;;9.48;2.17;;;;;;;;;;4965334;28;20061;-63
2022/10/11 10:01:33;;;;;;;10.88;2.80;;;;;;;;;;4987789;28;20054;-63
2022/10/11 10:04:08;;;;;;;12.90;2.28;;;;;;;;;;4964960;28;20058;-64
2022/10/11 10:06:34;;;;;;;10.80;2.00;;;;;;;;;;4970909;28;20050;-63
2022/10/11 10:09:16;;;;;;;11.40;2.03;;;;;;;;;;4965439;28;20058;-65
2022/10/11 10:11:44;;;;;;;9.57;1.73;;;;;;;;;;4971017;28;20078;-65
2022/10/11 10:14:18;;;;;;;11.15;2.00;;;;;;;;;;4966094;28;20050;-65
2022/10/11 10:16:44;;;;;;;9.65;2.03;;;;;;;;;;4970789;28;20058;-62
2022/10/11 10:19:17;;;;;;;24.40;4.00;;;;;;;;;;4965484;28;20054;-63
2022/10/11 10:21:45;;;;;;;22.13;5.38;;;;;;;;;;4971016;28;20046;-64
2022/10/11 10:24:17;;;;;;;17.00;4.60;;;;;;;;;;4965256;28;20050;-64
2022/10/11 10:27:04;;;;;;;11.43;2.58;;;;;;;;;;4970633;28;20068;-65
2022/10/11 10:29:31;;;;;;;12.60;2.75;;;;;;;;;;4964580;28;20125;-66
2022/10/11 10:31:58;;;;;;;11.52;2.05;;;;;;;;;;4987385;28;20050;-63
2022/10/11 10:34:27;;;;;;;14.43;1.55;;;;;;;;;;4965398;28;20054;-63
2022/10/11 10:36:55;;;;;;;7.63;1.63;;;;;;;;;;4969826;28;20097;-63
2022/10/11 10:39:25;;;;;;;8.18;1.17;;;;;;;;;;4961921;28;20043;-63
2022/10/11 10:41:53;;;;;;;7.60;1.38;;;;;;;;;;4952434;28;20077;-65
2022/10/11 10:44:20;;;;;;;9.35;1.30;;;;;;;;;;4953259;28;20042;-64
2022/10/11 10:46:52;;;;;;;9.93;1.48;;;;;;;;;;4970282;28;20258;-65
2022/10/11 10:49:23;;;;;;;13.38;1.30;;;;;;;;;;4964188;28;20519;-65
2022/10/11 10:51:56;;;;;;;11.63;1.45;;;;;;;;;;4970524;28;20143;-65
2022/10/11 10:54:29;;;;;;;7.20;1.27;;;;;;;;;;4964270;28;20065;-65
2022/10/11 10:56:58;;;;;;;5.57;1.25;;;;;;;;;;4970368;28;20062;-66
2022/10/11 10:59:42;;;;;;;10.27;1.27;;;;;;;;;;4965401;28;20054;-66
2022/10/11 11:02:14;;;;;;;13.18;1.48;;;;;;;;;;4970605;28;20129;-65
2022/10/11 11:04:44;;;;;;;6.03;1.13;;;;;;;;;;4964764;28;20130;-66
2022/10/11 11:07:17;;;;;;;3.22;0.68;;;;;;;;;;4987753;28;20054;-67
2022/10/11 11:09:48;;;;;;;7.82;1.35;;;;;;;;;;4964526;28;20061;-67
2022/10/11 11:12:20;;;;;;;9.15;1.20;;;;;;;;;;4970044;28;20061;-66
2022/10/11 11:14:51;;;;;;;9.90;1.52;;;;;;;;;;4957816;28;20090;-66
2022/10/11 11:17:25;;;;;;;9.95;1.25;;;;;;;;;;4970010;28;20082;-66
2022/10/11 11:20:03;;;;;;;7.28;1.25;;;;;;;;;;4964795;28;20129;-64
2022/10/11 11:22:36;;;;;;;10.63;1.30;;;;;;;;;;4969792;28;20050;-67
2022/10/11 11:25:07;;;;;;;15.38;1.50;;;;;;;;;;4965789;28;20093;-64
2022/10/11 11:27:42;;;;;;;4.88;0.98;;;;;;;;;;4966737;28;20068;-64
2022/10/11 11:30:10;;;;;;;4.72;0.98;;;;;;;;;;4965953;28;20049;-64
2022/10/11 11:32:42;;;;;;;5.63;1.00;;;;;;;;;;4949487;28;20055;-65
2022/10/11 11:35:11;;;;;;;7.43;1.20;;;;;;;;;;4950275;28;20122;-64
2022/10/11 11:37:40;;;;;;;14.35;3.22;;;;;;;;;;4963437;28;20085;-68
2022/10/11 11:40:13;;;;;;;16.00;2.63;;;;;;;;;;4970033;28;20058;-65
2022/10/11 11:42:43;;;;;;;6.50;1.40;;;;;;;;;;4964477;28;20085;-66
2022/10/11 11:45:15;;;;;;;8.68;1.00;;;;;;;;;;4968808;28;20109;-67
2022/10/11 11:47:43;;;;;;;3.50;1.05;;;;;;;;;;4964268;28;20108;-66
2022/10/11 11:50:21;;;;;;;4.70;1.45;;;;;;;;;;4953460;28;20113;-64
2022/10/11 11:52:50;;;;;;;3.13;0.95;;;;;;;;;;4966517;28;20077;-68
2022/10/11 11:55:19;;;;;;;6.68;1.17;;;;;;;;;;4988555;28;20131;-67
2022/10/11 11:57:57;;;;;;;7.65;1.80;;;;;;;;;;4981701;28;20062;-64
2022/10/11 12:00:25;;;;;;;14.85;4.20;;;;;;;;;;4988755;28;20046;-65
2022/10/11 12:02:53;;;;;;;11.23;2.55;;;;;;;;;;4983495;28;20122;-68
2022/10/11 12:05:21;;;;;;;10.05;1.40;;;;;;;;;;4988167;28;20058;-65
2022/10/11 12:07:50;;;;;;;7.57;1.00;;;;;;;;;;4983196;28;20089;-65
2022/10/11 12:10:22;;;;;;;8.23;1.25;;;;;;;;;;5004686;28;20046;-65
2022/10/11 12:12:49;;;;;;;5.82;0.73;;;;;;;;;;4982585;28;20062;-66
2022/10/11 12:15:19;;;;;;;6.55;1.30;;;;;;;;;;4987939;28;20050;-67
2022/10/11 12:18:11;;;;;;;10.30;1.20;;;;;;;;;;4983031;28;20077;-63
2022/10/11 12:20:40;;;;;;;8.13;1.17;;;;;;;;;;5005151;28;20058;-67
2022/10/11 12:23:22;;;;;;;5.45;0.90;;;;;;;;;;4997258;28;20081;-67
2022/10/11 12:26:09;;;;;;;6.10;1.13;;;;;;;;;;4987475;28;20077;-68
2022/10/11 12:28:59;;;;;;;2.42;0.90;;;;;;;;;;4982460;28;20181;-65
2022/10/11 12:31:28;;;;;;;6.72;1.23;;;;;;;;;;4988884;28;20149;-66
2022/10/11 12:34:15;;;;;;;5.35;0.80;;;;;;;;;;4982556;28;20104;-67
2022/10/11 12:36:42;;;;;;;8.05;1.13;;;;;;;;;;4987867;28;20058;-65
2022/10/11 12:39:28;;;;;;;4.60;0.82;;;;;;;;;;4982878;28;20077;-66
2022/10/11 12:42:06;;;;;;;5.78;1.17;;;;;;;;;;4988512;28;20116;-66
2022/10/11 12:44:33;;;;;;;4.25;1.00;;;;;;;;;;4982529;28;20050;-65
2022/10/11 12:47:13;;;;;;;5.15;1.00;;;;;;;;;;4987475;28;20057;-67
2022/10/11 12:49:47;;;;;;;5.28;1.00;;;;;;;;;;4981665;28;20058;-67
2022/10/11 12:52:33;;;;;;;4.65;0.93;;;;;;;;;;4986426;28;20135;-63
2022/10/11 12:55:06;;;;;;;5.35;0.98;;;;;;;;;;4982246;28;20068;-65
2022/10/11 12:57:54;;;;;;;3.95;1.05;;;;;;;;;;4987883;28;20101;-66
2022/10/11 13:00:22;;;;;;;3.83;0.73;;;;;;;;;;4979534;28;20072;-66
2022/10/11 13:02:50;;;;;;;4.80;0.93;;;;;;;;;;4988300;28;20079;-68
2022/10/11 13:05:20;;;;;;;3.75;0.95;;;;;;;;;;4983538;28;20064;-66
2022/10/11 13:07:47;;;;;;;3.03;0.75;;;;;;;;;;4987990;28;20057;-62
2022/10/11 13:10:14;;;;;;;4.05;0.93;;;;;;;;;;4980283;28;20160;-66
2022/10/11 13:12:42;;;;;;;3.10;0.80;;;;;;;;;;4988286;28;20069;-65
2022/10/11 13:15:13;;;;;;;5.93;1.33;;;;;;;;;;4982782;28;20049;-64
2022/10/11 13:17:40;;;;;;;6.50;1.50;;;;;;;;;;4987689;28;20057;-65
2022/10/11 13:20:16;;;;;;;5.78;1.42;;;;;;;;;;4981627;28;20049;-66
2022/10/11 13:22:43;;;;;;;5.80;1.15;;;;;;;;;;4987816;28;20186;-63
2022/10/11 13:25:15;;;;;;;8.88;1.27;;;;;;;;;;4982089;28;20052;-64
2022/10/11 13:27:43;;;;;;;2.92;0.93;;;;;;;;;;4988175;28;20058;-64
2022/10/11 13:30:13;;;;;;;16.42;2.15;;;;;;;;;;4972053;28;20054;-64
2022/10/11 13:32:39;;;;;;;3.15;1.30;;;;;;;;;;4987647;28;20167;-65
2022/10/11 13:35:14;;;;;;;8.05;1.13;;;;;;;;;;4999084;28;20061;-66
2022/10/11 13:37:44;;;;;;;7.07;1.08;;;;;;;;;;4987205;28;20089;-67
2022/10/11 13:40:12;;;;;;;57.83;4.25;;;;;;;;;;4990645;28;20061;-63
2022/10/11 13:42:39;;;;;;;;;;;;;;;;;;5006122;28;20050;-63
2022/10/11 13:45:09;;;;;;;11.90;1.83;;;;;;;;;;5007902;28;19926;-66
2022/10/11 13:47:36;;;;;;;3.47;1.00;;;;;;;;;;4985499;28;20085;-69
2022/10/11 13:50:09;;;;;;;3.33;0.70;;;;;;;;;;4991319;28;20072;-69
2022/10/11 13:52:47;;;;;;;11.52;1.80;;;;;;;;;;4984305;28;20058;-68
2022/10/11 13:55:23;;;;;;;5.40;1.20;;;;;;;;;;4991269;28;20050;-66
2022/10/11 13:57:51;;;;;;;4.07;1.20;;;;;;;;;;4979751;28;20054;-66
2022/10/11 14:00:22;;;;;;;7.10;0.95;;;;;;;;;;4971672;28;20078;-68
2022/10/11 14:02:53;;;;;;;3.95;1.05;;;;;;;;;;4979932;28;20050;-64
2022/10/11 14:05:25;;;;;;;3.90;1.00;;;;;;;;;;5007442;28;20108;-64
2022/10/11 14:07:53;;;;;;;5.18;0.82;;;;;;;;;;5001339;28;20053;-65
2022/10/11 14:10:20;;;;;;;3.00;0.95;;;;;;;;;;5008135;28;20060;-67
2022/10/11 14:13:01;;;;;;;5.53;1.00;;;;;;;;;;4981983;28;20125;-68
2022/10/11 14:15:29;;;;;;;3.78;1.00;;;;;;;;;;4972089;28;20084;-68
2022/10/11 14:17:57;;;;;;;5.22;1.10;;;;;;;;;;4976697;28;20064;-67
2022/10/11 14:20:27;;;;;;;6.65;0.98;;;;;;;;;;4991131;28;20164;-68
2022/10/11 14:22:55;;;;;;;2.28;0.68;;;;;;;;;;4985825;28;20061;-69
2022/10/11 14:25:23;;;;;;;13.13;0.93;;;;;;;;;;4989341;28;20057;-69
2022/10/11 14:27:50;;;;;;;4.88;1.08;;;;;;;;;;4984747;28;20069;-68
2022/10/11 14:30:18;;;;;;;3.17;0.90;;;;;;;;;;4990360;28;20062;-68
2022/10/11 14:32:45;;;;;;;4.40;0.87;;;;;;;;;;4984649;28;20167;-69
2022/10/11 14:35:15;;;;;;;7.20;0.95;;;;;;;;;;4990257;28;20058;-68
2022/10/11 14:37:42;;;;;;;5.43;0.85;;;;;;;;;;4984692;28;20069;-68
2022/10/11 14:40:13;;;;;;;15.65;1.67;;;;;;;;;;4989407;28;20046;-67
2022/10/11 14:42:40;;;;;;;7.78;1.10;;;;;;;;;;4985252;28;20053;-67
2022/10/11 14:45:07;;;;;;;13.02;1.90;;;;;;;;;;4987510;28;20140;-64
2022/10/11 14:47:34;;;;;;;6.38;1.05;;;;;;;;;;4986896;28;20050;-67
2022/10/11 14:50:01;;;;;;;8.13;1.20;;;;;;;;;;4983252;28;20042;-68
2022/10/11 14:52:27;;;;;;;9.15;1.25;;;;;;;;;;4988634;28;20081;-65
2022/10/11 14:54:54;;;;;;;7.50;1.50;;;;;;;;;;4978982;28;20082;-65